createdAt,value
2023-05-10T00:01:45.606Z,16.65
2023-05-10T00:04:12.709Z,16.66
2023-05-10T00:06:39.771Z,16.64
2023-05-10T00:09:06.965Z,16.68
2023-05-10T00:11:34.033Z,16.67
2023-05-10T00:14:01.045Z,16.38
2023-05-10T00:16:28.275Z,16.24
2023-05-10T00:18:55.399Z,16.42
2023-05-10T00:21:22.387Z,16.56
2023-05-10T00:23:49.327Z,16.41
2023-05-10T00:26:17.746Z,16.21
2023-05-10T00:28:44.749Z,16.13
2023-05-10T00:31:11.809Z,16.28
2023-05-10T00:33:38.755Z,16.39
2023-05-10T00:36:08.575Z,16.44
2023-05-10T00:38:35.604Z,16.30
2023-05-10T00:41:02.640Z,16.12
2023-05-10T00:43:29.662Z,16.28
2023-05-10T00:45:56.919Z,16.21
2023-05-10T00:48:24.191Z,16.13
2023-05-10T00:50:51.450Z,16.21
2023-05-10T00:53:19.029Z,16.19
2023-05-10T00:55:46.135Z,16.14
2023-05-10T00:58:13.439Z,16.05
2023-05-10T01:00:43.166Z,15.83
2023-05-10T01:03:12.517Z,15.82
2023-05-10T01:05:39.860Z,15.82
2023-05-10T01:08:07.511Z,15.80
2023-05-10T01:10:34.646Z,15.68
2023-05-10T01:13:01.861Z,15.65
2023-05-10T01:15:29.242Z,15.69
2023-05-10T01:17:57.534Z,15.63
2023-05-10T01:20:25.840Z,15.70
2023-05-10T01:23:20.191Z,15.83
2023-05-10T01:26:14.580Z,15.89
2023-05-10T01:28:50.629Z,15.76
2023-05-10T01:31:55.121Z,15.74
2023-05-10T01:34:28.646Z,15.65
2023-05-10T01:37:10.574Z,15.63
2023-05-10T01:40:04.138Z,15.70
2023-05-10T01:42:40.281Z,15.75
2023-05-10T01:45:17.457Z,15.68
2023-05-10T01:48:06.891Z,15.73
2023-05-10T01:50:36.677Z,15.59
2023-05-10T01:53:07.024Z,15.62
2023-05-10T01:55:41.207Z,15.63
2023-05-10T01:58:11.476Z,15.69
2023-05-10T02:00:43.944Z,15.69
2023-05-10T02:03:12.791Z,15.67
2023-05-10T02:05:42.478Z,15.74
2023-05-10T02:08:10.889Z,15.79
2023-05-10T02:10:40.123Z,15.84
2023-05-10T02:13:09.498Z,15.70
2023-05-10T02:15:39.826Z,15.75
2023-05-10T02:18:08.035Z,15.76
2023-05-10T02:20:36.325Z,15.89
2023-05-10T02:23:04.811Z,15.82
2023-05-10T02:25:33.841Z,15.79
2023-05-10T02:28:04.125Z,15.75
2023-05-10T02:30:33.633Z,15.64
2023-05-10T02:33:01.382Z,15.68
2023-05-10T02:35:29.302Z,15.68
2023-05-10T02:37:59.108Z,15.72
2023-05-10T02:40:28.933Z,15.77
2023-05-10T02:42:58.155Z,15.70
2023-05-10T02:45:31.450Z,15.83
2023-05-10T02:47:59.575Z,15.67
2023-05-10T02:50:29.397Z,15.69
2023-05-10T02:53:05.127Z,15.70
2023-05-10T02:55:37.445Z,15.80
2023-05-10T02:58:04.921Z,15.89
2023-05-10T03:00:32.714Z,15.90
2023-05-10T03:03:00.039Z,15.91
2023-05-10T03:05:27.092Z,15.88
2023-05-10T03:07:55.490Z,15.88
2023-05-10T03:10:29.719Z,15.74
2023-05-10T03:13:15.485Z,15.66
2023-05-10T03:16:08.941Z,15.62
2023-05-10T03:19:13.209Z,15.47
2023-05-10T03:21:43.294Z,15.34
2023-05-10T03:24:13.494Z,15.36
2023-05-10T03:26:43.262Z,15.47
2023-05-10T03:29:11.452Z,15.40
2023-05-10T03:31:39.785Z,15.44
2023-05-10T03:34:07.418Z,15.38
2023-05-10T03:36:34.603Z,15.42
2023-05-10T03:39:01.677Z,15.48
2023-05-10T03:41:29.719Z,15.47
2023-05-10T03:43:56.726Z,15.43
2023-05-10T03:46:23.729Z,15.39
2023-05-10T03:48:50.726Z,15.38
2023-05-10T03:51:17.717Z,15.42
2023-05-10T03:53:44.679Z,15.40
2023-05-10T03:56:11.670Z,15.25
2023-05-10T03:58:38.878Z,15.28
2023-05-10T04:01:05.990Z,15.39
2023-05-10T04:03:33.149Z,15.19
2023-05-10T04:06:03.878Z,15.10
2023-05-10T04:08:31.042Z,15.23
2023-05-10T04:11:10.868Z,15.12
2023-05-10T04:13:38.373Z,15.08
2023-05-10T04:16:06.018Z,15.09
2023-05-10T04:18:33.146Z,14.87
2023-05-10T04:21:00.255Z,14.78
2023-05-10T04:23:28.870Z,14.83
2023-05-10T04:26:02.370Z,14.91
2023-05-10T04:28:29.320Z,14.77
2023-05-10T04:31:06.499Z,14.68
2023-05-10T04:33:34.323Z,14.92
2023-05-10T04:36:01.876Z,14.92
2023-05-10T04:38:29.283Z,14.98
2023-05-10T04:41:05.150Z,15.16
2023-05-10T04:43:32.077Z,15.05
2023-05-10T04:45:59.187Z,14.86
2023-05-10T04:48:26.214Z,14.72
2023-05-10T04:50:53.148Z,14.73
2023-05-10T04:53:20.145Z,14.87
2023-05-10T04:55:47.867Z,14.91
2023-05-10T04:58:15.131Z,15.00
2023-05-10T05:00:42.792Z,14.92
2023-05-10T05:03:09.885Z,14.90
2023-05-10T05:05:36.940Z,14.86
2023-05-10T05:08:04.219Z,14.94
2023-05-10T05:10:31.519Z,14.85
2023-05-10T05:12:58.520Z,14.88
2023-05-10T05:15:25.589Z,14.86
2023-05-10T05:17:52.922Z,14.82
2023-05-10T05:20:20.171Z,14.76
2023-05-10T05:22:47.085Z,14.81
2023-05-10T05:25:14.165Z,14.82
2023-05-10T05:27:41.179Z,14.91
2023-05-10T05:30:08.944Z,14.80
2023-05-10T05:32:36.074Z,14.66
2023-05-10T05:35:03.055Z,14.69
2023-05-10T05:37:30.017Z,14.79
2023-05-10T05:39:57.033Z,14.75
2023-05-10T05:42:24.030Z,14.82
2023-05-10T05:44:51.066Z,14.82
2023-05-10T05:47:18.615Z,14.78
2023-05-10T05:49:47.011Z,14.73
2023-05-10T05:52:13.997Z,14.47
2023-05-10T05:54:41.056Z,14.25
2023-05-10T05:57:08.622Z,14.33
2023-05-10T05:59:35.648Z,14.37
2023-05-10T06:02:02.670Z,14.56
2023-05-10T06:04:29.718Z,14.60
2023-05-10T06:06:56.753Z,14.55
2023-05-10T06:09:25.642Z,14.20
2023-05-10T06:11:52.590Z,14.18
2023-05-10T06:14:22.061Z,14.29
2023-05-10T06:16:49.029Z,14.36
2023-05-10T06:19:16.136Z,14.56
2023-05-10T06:21:43.100Z,14.64
2023-05-10T06:24:10.064Z,14.58
2023-05-10T06:26:37.334Z,14.67
2023-05-10T06:29:04.363Z,14.74
2023-05-10T06:31:31.422Z,14.48
2023-05-10T06:33:58.938Z,14.50
2023-05-10T06:36:27.493Z,14.31
2023-05-10T06:38:54.520Z,14.47
2023-05-10T06:41:24.639Z,14.66
2023-05-10T06:43:51.913Z,14.58
2023-05-10T06:46:18.928Z,14.44
2023-05-10T06:48:45.902Z,14.45
2023-05-10T06:51:12.962Z,14.56
2023-05-10T06:53:39.929Z,14.62
2023-05-10T06:56:06.917Z,14.76
2023-05-10T06:58:33.917Z,14.69
2023-05-10T07:01:05.475Z,14.80
2023-05-10T07:03:33.309Z,14.69
2023-05-10T07:06:04.869Z,14.80
2023-05-10T07:08:33.110Z,14.71
2023-05-10T07:11:05.098Z,15.00
2023-05-10T07:13:33.147Z,15.02
2023-05-10T07:16:01.665Z,15.11
2023-05-10T07:18:28.891Z,15.18
2023-05-10T07:20:56.268Z,15.21
2023-05-10T07:23:23.236Z,15.29
2023-05-10T07:25:52.586Z,15.29
2023-05-10T07:28:19.806Z,15.27
2023-05-10T07:30:47.613Z,15.47
2023-05-10T07:33:15.824Z,15.58
2023-05-10T07:35:43.726Z,15.69
2023-05-10T07:38:12.237Z,15.76
2023-05-10T07:40:40.446Z,15.60
2023-05-10T07:43:07.556Z,15.53
2023-05-10T07:45:35.089Z,15.46
2023-05-10T07:48:02.201Z,15.42
2023-05-10T07:50:29.387Z,15.47
2023-05-10T07:52:56.364Z,15.57
2023-05-10T07:55:23.435Z,15.60
2023-05-10T07:57:50.456Z,15.61
2023-05-10T08:00:21.428Z,15.75
2023-05-10T08:02:48.992Z,15.79
2023-05-10T08:05:16.620Z,15.98
2023-05-10T08:07:43.761Z,16.23
2023-05-10T08:10:12.304Z,16.26
2023-05-10T08:12:39.609Z,16.28
2023-05-10T08:15:07.794Z,16.33
2023-05-10T08:17:34.892Z,16.52
2023-05-10T08:20:02.467Z,16.55
2023-05-10T08:22:29.587Z,16.56
2023-05-10T08:24:56.543Z,16.61
2023-05-10T08:27:23.562Z,16.56
2023-05-10T08:29:50.810Z,16.63
2023-05-10T08:32:18.638Z,16.60
2023-05-10T08:34:45.674Z,16.64
2023-05-10T08:37:14.619Z,16.62
2023-05-10T08:39:41.946Z,16.50
2023-05-10T08:42:10.423Z,16.48
2023-05-10T08:44:37.953Z,16.40
2023-05-10T08:47:08.690Z,16.42
2023-05-10T08:49:36.323Z,16.72
2023-05-10T08:52:05.549Z,16.93
2023-05-10T08:54:33.648Z,16.99
2023-05-10T08:57:01.098Z,17.04
2023-05-10T08:59:28.666Z,17.03
2023-05-10T09:02:02.252Z,17.03
2023-05-10T09:04:31.016Z,17.08
2023-05-10T09:06:58.503Z,17.19
2023-05-10T09:09:26.902Z,17.09
2023-05-10T09:11:55.010Z,16.95
2023-05-10T09:14:23.245Z,16.92
2023-05-10T09:16:50.630Z,16.96
2023-05-10T09:19:17.617Z,17.06
2023-05-10T09:21:44.636Z,17.14
2023-05-10T09:24:11.590Z,17.28
2023-05-10T09:26:49.114Z,17.39
2023-05-10T09:29:17.728Z,17.16
2023-05-10T09:31:48.005Z,17.20
2023-05-10T09:34:24.041Z,17.11
2023-05-10T09:37:04.008Z,16.97
2023-05-10T09:39:33.176Z,16.96
2023-05-10T09:42:05.612Z,17.01
2023-05-10T09:44:35.907Z,16.95
2023-05-10T09:47:03.912Z,17.02
2023-05-10T09:49:31.321Z,17.22
2023-05-10T09:52:03.865Z,17.25
2023-05-10T09:54:31.510Z,17.34
2023-05-10T09:56:58.710Z,17.35
2023-05-10T09:59:30.267Z,17.26
2023-05-10T10:01:59.369Z,17.06
2023-05-10T10:04:26.915Z,17.08
2023-05-10T10:07:04.876Z,17.38
2023-05-10T10:09:33.741Z,17.33
2023-05-10T10:12:01.956Z,17.15
2023-05-10T10:14:30.294Z,17.06
2023-05-10T10:17:07.418Z,17.00
2023-05-10T10:19:37.203Z,17.07
2023-05-10T10:22:04.639Z,17.33
2023-05-10T10:24:31.686Z,17.44
2023-05-10T10:27:09.023Z,17.53
2023-05-10T10:29:59.448Z,17.65
2023-05-10T10:32:56.537Z,17.75
2023-05-10T10:35:23.870Z,17.78
2023-05-10T10:37:52.209Z,17.72
2023-05-10T10:40:31.900Z,17.84
2023-05-10T10:43:27.063Z,17.87
2023-05-10T10:46:18.430Z,17.91
2023-05-10T10:48:52.473Z,17.99
2023-05-10T10:51:19.519Z,18.10
2023-05-10T10:53:49.244Z,18.18
2023-05-10T10:56:16.690Z,18.10
2023-05-10T10:58:52.458Z,18.22
2023-05-10T11:01:20.410Z,18.26
2023-05-10T11:03:59.723Z,18.20
2023-05-10T11:06:32.845Z,18.12
2023-05-10T11:09:00.752Z,18.00
2023-05-10T11:11:27.992Z,17.89
2023-05-10T11:14:04.786Z,17.86
2023-05-10T11:16:45.226Z,17.92
2023-05-10T11:19:13.797Z,18.07
2023-05-10T11:22:07.013Z,18.34
2023-05-10T11:24:34.597Z,18.36
2023-05-10T11:27:02.124Z,18.38
2023-05-10T11:29:29.263Z,18.21
2023-05-10T11:31:59.593Z,18.01
2023-05-10T11:34:28.974Z,17.94
2023-05-10T11:36:57.362Z,17.84
2023-05-10T11:39:29.264Z,17.98
2023-05-10T11:41:56.901Z,18.17
2023-05-10T11:44:24.411Z,18.17
2023-05-10T11:46:51.633Z,18.05
2023-05-10T11:49:19.069Z,17.80
2023-05-10T11:51:46.115Z,17.61
2023-05-10T11:54:13.187Z,17.45
2023-05-10T11:56:41.393Z,17.42
2023-05-10T11:59:09.374Z,17.29
2023-05-10T12:01:37.143Z,17.29
2023-05-10T12:04:04.640Z,17.44
2023-05-10T12:06:34.304Z,17.64
2023-05-10T12:09:08.255Z,17.63
2023-05-10T12:11:40.543Z,17.48
2023-05-10T12:14:09.973Z,17.50
2023-05-10T12:16:37.092Z,17.75
2023-05-10T12:19:04.274Z,17.67
2023-05-10T12:21:34.519Z,17.46
2023-05-10T12:24:04.926Z,17.40
2023-05-10T12:26:33.866Z,17.25
2023-05-10T12:29:17.499Z,17.19
2023-05-10T12:31:52.339Z,17.35
2023-05-10T12:34:32.535Z,17.74
2023-05-10T12:37:00.006Z,17.79
2023-05-10T12:39:27.468Z,17.74
2023-05-10T12:41:54.522Z,17.80
2023-05-10T12:44:21.662Z,17.51
2023-05-10T12:46:48.853Z,17.30
2023-05-10T12:49:15.963Z,17.19
2023-05-10T12:51:42.955Z,17.24
2023-05-10T12:54:10.044Z,17.33
2023-05-10T12:56:38.160Z,17.52
2023-05-10T12:59:05.485Z,17.83
2023-05-10T13:01:32.502Z,17.52
2023-05-10T13:04:01.226Z,17.33
2023-05-10T13:06:28.191Z,17.17
2023-05-10T13:08:55.172Z,17.04
2023-05-10T13:11:22.754Z,17.10
2023-05-10T13:13:49.784Z,17.05
2023-05-10T13:16:16.876Z,16.99
2023-05-10T13:18:44.002Z,17.07
2023-05-10T13:21:11.139Z,17.24
2023-05-10T13:23:38.134Z,17.56
2023-05-10T13:26:05.085Z,17.46
2023-05-10T13:28:32.089Z,17.21
2023-05-10T13:31:01.079Z,17.26
2023-05-10T13:33:28.124Z,17.36
2023-05-10T13:35:55.856Z,17.37
2023-05-10T13:38:23.059Z,17.45
2023-05-10T13:40:53.730Z,17.43
2023-05-10T13:43:21.161Z,17.43
2023-05-10T13:45:48.230Z,17.38
2023-05-10T13:48:15.215Z,17.45
2023-05-10T13:50:42.252Z,17.58
2023-05-10T13:53:09.190Z,17.66
2023-05-10T13:55:36.989Z,17.78
2023-05-10T13:58:03.936Z,17.76
2023-05-10T14:00:31.112Z,17.66
2023-05-10T14:02:58.172Z,17.54
2023-05-10T14:05:26.440Z,17.59
2023-05-10T14:07:53.765Z,17.63
2023-05-10T14:10:21.176Z,17.62
2023-05-10T14:12:48.272Z,17.57
2023-05-10T14:15:15.589Z,17.50
2023-05-10T14:17:42.837Z,17.59
2023-05-10T14:20:10.290Z,17.86
2023-05-10T14:22:37.283Z,18.01
2023-05-10T14:25:04.563Z,18.05
2023-05-10T14:27:31.638Z,18.12
2023-05-10T14:29:58.719Z,18.30
2023-05-10T14:32:25.975Z,18.61
2023-05-10T14:34:52.988Z,18.74
2023-05-10T14:37:19.967Z,18.63
2023-05-10T14:39:47.013Z,18.67
2023-05-10T14:42:14.009Z,18.70
2023-05-10T14:44:41.004Z,18.86
2023-05-10T14:47:08.953Z,18.97
2023-05-10T14:49:38.297Z,18.84
2023-05-10T14:52:05.308Z,18.71
2023-05-10T14:54:34.538Z,18.75
2023-05-10T14:57:01.823Z,18.65
2023-05-10T14:59:28.926Z,18.50
2023-05-10T15:01:56.753Z,18.43
2023-05-10T15:04:24.739Z,18.32
2023-05-10T15:06:53.322Z,18.16
2023-05-10T15:09:20.294Z,18.03
2023-05-10T15:11:47.236Z,18.02
2023-05-10T15:14:14.188Z,17.92
2023-05-10T15:16:41.293Z,17.86
2023-05-10T15:19:08.400Z,17.77
2023-05-10T15:21:39.994Z,17.75
2023-05-10T15:24:07.189Z,17.66
2023-05-10T15:26:34.382Z,17.67
2023-05-10T15:29:01.385Z,17.74
2023-05-10T15:31:28.552Z,17.77
2023-05-10T15:34:01.920Z,17.84
2023-05-10T15:36:29.176Z,17.88
2023-05-10T15:38:56.972Z,17.96
2023-05-10T15:41:24.766Z,18.14
2023-05-10T15:43:51.959Z,18.15
2023-05-10T15:46:18.915Z,18.29
2023-05-10T15:48:45.931Z,18.40
2023-05-10T15:51:12.953Z,18.24
2023-05-10T15:53:46.649Z,18.13
2023-05-10T15:56:20.047Z,17.91
2023-05-10T15:58:47.172Z,17.83
2023-05-10T16:01:14.379Z,17.69
2023-05-10T16:03:41.501Z,17.69
2023-05-10T16:06:08.580Z,17.65
2023-05-10T16:08:35.644Z,17.75
2023-05-10T16:11:03.229Z,17.81
2023-05-10T16:13:30.359Z,17.97
2023-05-10T16:16:00.527Z,18.26
2023-05-10T16:18:27.676Z,18.52
2023-05-10T16:20:54.847Z,18.65
2023-05-10T16:23:21.841Z,18.90
2023-05-10T16:25:48.820Z,19.32
2023-05-10T16:28:15.807Z,19.22
2023-05-10T16:30:42.754Z,19.00
2023-05-10T16:33:09.737Z,18.85
2023-05-10T16:35:36.725Z,19.01
2023-05-10T16:38:04.187Z,19.27
2023-05-10T16:40:31.567Z,19.26
2023-05-10T16:42:58.762Z,19.02
2023-05-10T16:45:26.898Z,18.79
2023-05-10T16:47:54.107Z,18.75
2023-05-10T16:50:21.396Z,18.45
2023-05-10T16:52:48.383Z,18.16
2023-05-10T16:55:15.616Z,18.07
2023-05-10T16:57:42.799Z,18.13
2023-05-10T17:00:12.038Z,18.17
2023-05-10T17:02:39.585Z,18.13
2023-05-10T17:05:06.871Z,18.49
2023-05-10T17:07:33.951Z,18.44
2023-05-10T17:10:00.960Z,18.32
2023-05-10T17:12:28.181Z,18.24
2023-05-10T17:14:55.187Z,18.10
2023-05-10T17:17:22.313Z,18.00
2023-05-10T17:19:49.317Z,17.83
2023-05-10T17:22:16.287Z,17.71
2023-05-10T17:24:43.524Z,17.72
2023-05-10T17:27:10.495Z,17.68
2023-05-10T17:29:37.712Z,17.53
2023-05-10T17:32:04.945Z,17.50
2023-05-10T17:34:31.956Z,17.52
2023-05-10T17:36:58.953Z,17.56
2023-05-10T17:39:26.024Z,17.63
2023-05-10T17:41:53.053Z,17.61
2023-05-10T17:44:20.198Z,17.62
2023-05-10T17:46:47.832Z,17.58
2023-05-10T17:49:15.427Z,17.44
2023-05-10T17:51:44.234Z,17.43
2023-05-10T17:54:11.184Z,17.46
2023-05-10T17:56:38.174Z,17.38
2023-05-10T17:59:05.592Z,17.35
2023-05-10T18:01:32.974Z,17.29
2023-05-10T18:04:00.005Z,17.21
2023-05-10T18:06:26.997Z,17.12
2023-05-10T18:08:54.019Z,17.09
2023-05-10T18:11:21.983Z,17.03
2023-05-10T18:13:48.978Z,16.96
2023-05-10T18:16:16.079Z,16.93
2023-05-10T18:18:43.107Z,16.88
2023-05-10T18:21:10.062Z,16.84
2023-05-10T18:23:37.330Z,16.79
2023-05-10T18:26:04.426Z,16.75
2023-05-10T18:28:31.445Z,16.77
2023-05-10T18:30:58.494Z,16.79
2023-05-10T18:33:25.679Z,16.76
2023-05-10T18:35:52.716Z,16.70
2023-05-10T18:38:20.007Z,16.66
2023-05-10T18:40:46.997Z,16.66
2023-05-10T18:43:14.093Z,16.55
2023-05-10T18:45:41.232Z,16.48
2023-05-10T18:48:08.330Z,16.42
2023-05-10T18:50:35.342Z,16.47
2023-05-10T18:53:03.294Z,16.44
2023-05-10T18:55:30.483Z,16.41
2023-05-10T18:57:57.505Z,16.42
2023-05-10T19:00:24.724Z,16.49
2023-05-10T19:02:51.947Z,16.48
2023-05-10T19:05:19.468Z,16.41
2023-05-10T19:07:47.115Z,16.32
2023-05-10T19:10:14.196Z,16.26
2023-05-10T19:12:43.943Z,16.35
2023-05-10T19:15:11.888Z,16.36
2023-05-10T19:17:41.049Z,16.28
2023-05-10T19:20:09.495Z,16.24
2023-05-10T19:22:54.344Z,16.26
2023-05-10T19:25:29.656Z,16.24
2023-05-10T19:27:59.691Z,16.20
2023-05-10T19:30:27.204Z,16.21
2023-05-10T19:32:54.492Z,16.22
2023-05-10T19:35:21.552Z,16.18
2023-05-10T19:37:49.867Z,16.03
2023-05-10T19:40:17.583Z,15.96
2023-05-10T19:42:44.606Z,15.94
2023-05-10T19:45:12.393Z,15.72
2023-05-10T19:47:39.484Z,15.85
2023-05-10T19:50:07.584Z,15.96
2023-05-10T19:52:34.667Z,15.96
2023-05-10T19:55:01.630Z,15.91
2023-05-10T19:57:29.122Z,15.71
2023-05-10T19:59:56.281Z,15.60
2023-05-10T20:02:23.409Z,15.52
2023-05-10T20:04:50.570Z,15.43
2023-05-10T20:07:17.555Z,15.54
2023-05-10T20:09:44.632Z,15.61
2023-05-10T20:12:11.624Z,15.55
2023-05-10T20:14:38.658Z,15.66
2023-05-10T20:17:05.948Z,15.45
2023-05-10T20:19:33.000Z,15.27
2023-05-10T20:22:00.040Z,15.32
2023-05-10T20:24:27.026Z,15.47
2023-05-10T20:26:53.927Z,15.46
2023-05-10T20:29:20.977Z,15.54
2023-05-10T20:31:47.942Z,15.51
2023-05-10T20:34:14.952Z,15.54
2023-05-10T20:36:42.181Z,15.38
2023-05-10T20:39:09.828Z,15.49
2023-05-10T20:41:36.797Z,15.53
2023-05-10T20:44:05.683Z,15.46
2023-05-10T20:46:33.845Z,15.21
2023-05-10T20:49:00.962Z,15.10
2023-05-10T20:51:30.168Z,15.23
2023-05-10T20:53:57.992Z,15.13
2023-05-10T20:56:25.073Z,15.19
2023-05-10T20:58:52.066Z,15.18
2023-05-10T21:01:19.149Z,15.18
2023-05-10T21:03:46.239Z,15.16
2023-05-10T21:06:13.206Z,15.21
2023-05-10T21:08:40.163Z,15.19
2023-05-10T21:11:07.173Z,15.15
2023-05-10T21:13:34.229Z,15.01
2023-05-10T21:16:01.270Z,15.02
2023-05-10T21:18:28.693Z,15.01
2023-05-10T21:20:55.840Z,15.10
2023-05-10T21:23:22.992Z,15.17
2023-05-10T21:25:49.968Z,15.12
2023-05-10T21:28:16.985Z,15.00
2023-05-10T21:30:43.974Z,14.77
2023-05-10T21:33:11.494Z,14.68
2023-05-10T21:35:42.813Z,14.81
2023-05-10T21:38:10.061Z,14.99
2023-05-10T21:40:37.078Z,15.10
2023-05-10T21:43:04.070Z,15.14
2023-05-10T21:45:33.078Z,14.92
2023-05-10T21:48:00.703Z,14.67
2023-05-10T21:50:27.746Z,14.77
2023-05-10T21:52:55.712Z,14.83
2023-05-10T21:55:22.950Z,15.00
2023-05-10T21:57:51.073Z,15.01
2023-05-10T22:00:19.435Z,14.99
2023-05-10T22:02:47.111Z,15.02
2023-05-10T22:05:14.237Z,15.06
2023-05-10T22:07:41.266Z,15.09
2023-05-10T22:10:09.772Z,15.04
2023-05-10T22:12:36.847Z,15.04
2023-05-10T22:17:34.418Z,14.96
2023-05-10T22:20:01.392Z,14.93
2023-05-10T22:22:28.642Z,14.97
2023-05-10T22:24:55.646Z,14.70
2023-05-10T22:27:22.666Z,14.57
2023-05-10T22:29:49.636Z,14.60
2023-05-10T22:32:16.718Z,14.67
2023-05-10T22:34:43.713Z,14.72
2023-05-10T22:37:13.857Z,14.86
2023-05-10T22:39:40.877Z,14.83
2023-05-10T22:42:08.230Z,14.89
2023-05-10T22:44:35.237Z,14.87
2023-05-10T22:47:02.269Z,14.78
2023-05-10T22:49:29.370Z,14.47
2023-05-10T22:51:56.316Z,14.48
2023-05-10T22:54:23.268Z,14.63
2023-05-10T22:56:50.951Z,14.62
2023-05-10T22:59:17.998Z,14.31
2023-05-10T23:01:45.047Z,14.11
2023-05-10T23:04:12.623Z,14.39
2023-05-10T23:06:39.791Z,14.58
2023-05-10T23:09:06.783Z,14.32
2023-05-10T23:11:33.793Z,14.46
2023-05-10T23:14:00.827Z,14.59
2023-05-10T23:16:27.828Z,14.62
2023-05-10T23:18:55.103Z,14.58
2023-05-10T23:21:22.177Z,14.32
2023-05-10T23:23:49.545Z,14.30
2023-05-10T23:26:16.512Z,14.39
2023-05-10T23:28:43.449Z,14.33
2023-05-10T23:31:10.433Z,14.35
2023-05-10T23:33:37.432Z,14.41
2023-05-10T23:36:04.608Z,14.47
2023-05-10T23:38:31.612Z,14.47
2023-05-10T23:40:58.604Z,14.53
2023-05-10T23:43:25.693Z,14.46
2023-05-10T23:45:57.158Z,14.22
2023-05-10T23:48:24.726Z,14.21
2023-05-10T23:50:51.920Z,14.30
2023-05-10T23:53:19.220Z,14.34
2023-05-10T23:55:46.285Z,14.42
2023-05-10T23:58:13.285Z,14.44
